sensor_id;sensor_type;location;lat;lon;timestamp;P1;durP1;ratioP1;P2;durP2;ratioP2
11854;SDS011;5987;53.140;8.904;2023-09-19T00:00:27;4.43;;;2.17;;
11854;SDS011;5987;53.140;8.904;2023-09-19T00:03:31;4.37;;;2.23;;
11854;SDS011;5987;53.140;8.904;2023-09-19T00:06:35;2.30;;;1.97;;
11854;SDS011;5987;53.140;8.904;2023-09-19T00:09:39;3.53;;;1.83;;
11854;SDS011;5987;53.140;8.904;2023-09-19T00:12:44;3.57;;;2.23;;
11854;SDS011;5987;53.140;8.904;2023-09-19T00:15:48;6.73;;;2.20;;
11854;SDS011;5987;53.140;8.904;2023-09-19T00:18:52;6.97;;;2.63;;
11854;SDS011;5987;53.140;8.904;2023-09-19T00:21:56;5.40;;;2.67;;
11854;SDS011;5987;53.140;8.904;2023-09-19T00:25:00;3.33;;;2.33;;
11854;SDS011;5987;53.140;8.904;2023-09-19T00:28:05;4.63;;;2.30;;
11854;SDS011;5987;53.140;8.904;2023-09-19T00:31:09;5.40;;;2.23;;
11854;SDS011;5987;53.140;8.904;2023-09-19T00:34:13;5.10;;;2.70;;
11854;SDS011;5987;53.140;8.904;2023-09-19T00:37:18;8.67;;;2.47;;
11854;SDS011;5987;53.140;8.904;2023-09-19T00:40:21;5.17;;;2.77;;
11854;SDS011;5987;53.140;8.904;2023-09-19T00:43:28;4.27;;;2.63;;
11854;SDS011;5987;53.140;8.904;2023-09-19T00:46:37;6.70;;;3.40;;
11854;SDS011;5987;53.140;8.904;2023-09-19T00:49:42;4.00;;;2.40;;
11854;SDS011;5987;53.140;8.904;2023-09-19T00:52:46;3.47;;;2.43;;
11854;SDS011;5987;53.140;8.904;2023-09-19T00:55:52;4.60;;;2.57;;
11854;SDS011;5987;53.140;8.904;2023-09-19T00:58:59;2.30;;;2.10;;
11854;SDS011;5987;53.140;8.904;2023-09-19T01:02:03;4.13;;;2.37;;
11854;SDS011;5987;53.140;8.904;2023-09-19T01:05:07;5.57;;;2.27;;
11854;SDS011;5987;53.140;8.904;2023-09-19T01:08:11;2.60;;;2.17;;
11854;SDS011;5987;53.140;8.904;2023-09-19T01:11:17;3.70;;;1.80;;
11854;SDS011;5987;53.140;8.904;2023-09-19T01:14:40;4.33;;;2.10;;
11854;SDS011;5987;53.140;8.904;2023-09-19T01:18:00;4.27;;;2.03;;
11854;SDS011;5987;53.140;8.904;2023-09-19T01:21:21;4.10;;;1.57;;
11854;SDS011;5987;53.140;8.904;2023-09-19T01:24:34;5.93;;;2.20;;
11854;SDS011;5987;53.140;8.904;2023-09-19T01:28:23;5.57;;;1.93;;
11854;SDS011;5987;53.140;8.904;2023-09-19T01:31:40;5.03;;;1.97;;
11854;SDS011;5987;53.140;8.904;2023-09-19T01:34:48;4.03;;;1.90;;
11854;SDS011;5987;53.140;8.904;2023-09-19T01:37:54;3.23;;;1.80;;
11854;SDS011;5987;53.140;8.904;2023-09-19T01:41:01;4.10;;;2.20;;
11854;SDS011;5987;53.140;8.904;2023-09-19T01:44:17;5.33;;;1.87;;
11854;SDS011;5987;53.140;8.904;2023-09-19T01:47:33;3.17;;;1.87;;
11854;SDS011;5987;53.140;8.904;2023-09-19T01:50:47;3.27;;;1.70;;
11854;SDS011;5987;53.140;8.904;2023-09-19T01:54:03;2.37;;;0.90;;
11854;SDS011;5987;53.140;8.904;2023-09-19T01:57:15;1.13;;;0.50;;
11854;SDS011;5987;53.140;8.904;2023-09-19T02:00:29;1.40;;;0.83;;
11854;SDS011;5987;53.140;8.904;2023-09-19T02:03:41;1.83;;;0.90;;
11854;SDS011;5987;53.140;8.904;2023-09-19T02:06:46;1.37;;;0.80;;
11854;SDS011;5987;53.140;8.904;2023-09-19T02:09:50;1.20;;;0.77;;
11854;SDS011;5987;53.140;8.904;2023-09-19T02:12:54;2.17;;;0.83;;
11854;SDS011;5987;53.140;8.904;2023-09-19T02:15:58;2.10;;;1.03;;
11854;SDS011;5987;53.140;8.904;2023-09-19T02:19:05;2.27;;;0.70;;
11854;SDS011;5987;53.140;8.904;2023-09-19T02:22:10;3.37;;;1.00;;
11854;SDS011;5987;53.140;8.904;2023-09-19T02:25:14;2.10;;;0.80;;
11854;SDS011;5987;53.140;8.904;2023-09-19T02:28:17;1.53;;;1.13;;
11854;SDS011;5987;53.140;8.904;2023-09-19T02:31:21;3.13;;;0.80;;
11854;SDS011;5987;53.140;8.904;2023-09-19T02:34:26;2.57;;;0.73;;
11854;SDS011;5987;53.140;8.904;2023-09-19T02:37:30;3.00;;;1.00;;
11854;SDS011;5987;53.140;8.904;2023-09-19T02:40:36;1.80;;;0.93;;
11854;SDS011;5987;53.140;8.904;2023-09-19T02:43:40;2.27;;;1.10;;
11854;SDS011;5987;53.140;8.904;2023-09-19T02:46:45;4.33;;;1.47;;
11854;SDS011;5987;53.140;8.904;2023-09-19T02:49:51;1.23;;;1.03;;
11854;SDS011;5987;53.140;8.904;2023-09-19T02:52:55;2.50;;;1.07;;
11854;SDS011;5987;53.140;8.904;2023-09-19T02:55:59;4.23;;;1.37;;
11854;SDS011;5987;53.140;8.904;2023-09-19T02:59:03;3.80;;;0.97;;
11854;SDS011;5987;53.140;8.904;2023-09-19T03:02:07;5.90;;;1.43;;
11854;SDS011;5987;53.140;8.904;2023-09-19T03:05:13;3.80;;;0.80;;
11854;SDS011;5987;53.140;8.904;2023-09-19T03:08:17;6.90;;;1.27;;
11854;SDS011;5987;53.140;8.904;2023-09-19T03:11:20;5.30;;;1.20;;
11854;SDS011;5987;53.140;8.904;2023-09-19T03:14:24;3.83;;;1.10;;
11854;SDS011;5987;53.140;8.904;2023-09-19T03:17:31;5.70;;;0.93;;
11854;SDS011;5987;53.140;8.904;2023-09-19T03:20:37;3.87;;;1.20;;
11854;SDS011;5987;53.140;8.904;2023-09-19T03:23:40;6.20;;;1.50;;
11854;SDS011;5987;53.140;8.904;2023-09-19T03:26:46;1.87;;;1.10;;
11854;SDS011;5987;53.140;8.904;2023-09-19T03:29:50;3.80;;;1.30;;
11854;SDS011;5987;53.140;8.904;2023-09-19T03:32:54;3.97;;;1.27;;
11854;SDS011;5987;53.140;8.904;2023-09-19T03:35:59;3.33;;;1.30;;
11854;SDS011;5987;53.140;8.904;2023-09-19T03:39:06;2.37;;;0.90;;
11854;SDS011;5987;53.140;8.904;2023-09-19T03:42:10;5.70;;;1.37;;
11854;SDS011;5987;53.140;8.904;2023-09-19T03:45:13;5.87;;;1.30;;
11854;SDS011;5987;53.140;8.904;2023-09-19T03:48:17;2.37;;;1.20;;
11854;SDS011;5987;53.140;8.904;2023-09-19T03:51:24;4.40;;;1.27;;
11854;SDS011;5987;53.140;8.904;2023-09-19T03:54:28;1.93;;;1.30;;
11854;SDS011;5987;53.140;8.904;2023-09-19T03:57:31;3.03;;;1.17;;
11854;SDS011;5987;53.140;8.904;2023-09-19T04:00:37;3.63;;;1.50;;
11854;SDS011;5987;53.140;8.904;2023-09-19T04:03:41;3.73;;;1.23;;
11854;SDS011;5987;53.140;8.904;2023-09-19T04:06:53;3.57;;;1.73;;
11854;SDS011;5987;53.140;8.904;2023-09-19T04:09:57;4.13;;;1.50;;
11854;SDS011;5987;53.140;8.904;2023-09-19T04:13:01;4.43;;;1.33;;
11854;SDS011;5987;53.140;8.904;2023-09-19T04:16:06;5.13;;;2.20;;
11854;SDS011;5987;53.140;8.904;2023-09-19T04:19:11;4.07;;;1.53;;
11854;SDS011;5987;53.140;8.904;2023-09-19T04:22:17;3.53;;;0.90;;
11854;SDS011;5987;53.140;8.904;2023-09-19T04:25:21;6.10;;;1.60;;
11854;SDS011;5987;53.140;8.904;2023-09-19T04:28:25;3.67;;;1.47;;
11854;SDS011;5987;53.140;8.904;2023-09-19T04:31:29;3.63;;;1.40;;
11854;SDS011;5987;53.140;8.904;2023-09-19T04:34:33;4.53;;;1.53;;
11854;SDS011;5987;53.140;8.904;2023-09-19T04:37:39;6.87;;;1.40;;
11854;SDS011;5987;53.140;8.904;2023-09-19T04:40:44;7.63;;;1.43;;
11854;SDS011;5987;53.140;8.904;2023-09-19T04:43:47;4.10;;;1.40;;
11854;SDS011;5987;53.140;8.904;2023-09-19T04:46:53;4.67;;;1.57;;
11854;SDS011;5987;53.140;8.904;2023-09-19T04:49:57;2.30;;;1.10;;
11854;SDS011;5987;53.140;8.904;2023-09-19T04:53:02;3.07;;;1.47;;
11854;SDS011;5987;53.140;8.904;2023-09-19T04:56:06;4.20;;;1.67;;
11854;SDS011;5987;53.140;8.904;2023-09-19T04:59:10;5.53;;;1.80;;
11854;SDS011;5987;53.140;8.904;2023-09-19T05:02:14;5.20;;;1.50;;
11854;SDS011;5987;53.140;8.904;2023-09-19T05:05:18;4.07;;;1.60;;
11854;SDS011;5987;53.140;8.904;2023-09-19T05:08:23;3.37;;;1.77;;
11854;SDS011;5987;53.140;8.904;2023-09-19T05:11:27;3.43;;;2.03;;
11854;SDS011;5987;53.140;8.904;2023-09-19T05:14:32;4.17;;;1.80;;
11854;SDS011;5987;53.140;8.904;2023-09-19T05:17:36;5.27;;;1.80;;
11854;SDS011;5987;53.140;8.904;2023-09-19T05:20:40;3.97;;;1.60;;
11854;SDS011;5987;53.140;8.904;2023-09-19T05:23:46;4.30;;;2.30;;
11854;SDS011;5987;53.140;8.904;2023-09-19T05:26:51;7.40;;;1.87;;
11854;SDS011;5987;53.140;8.904;2023-09-19T05:29:57;7.47;;;1.90;;
11854;SDS011;5987;53.140;8.904;2023-09-19T05:33:00;4.77;;;1.80;;
11854;SDS011;5987;53.140;8.904;2023-09-19T05:36:06;6.50;;;1.50;;
11854;SDS011;5987;53.140;8.904;2023-09-19T05:39:12;4.47;;;1.67;;
11854;SDS011;5987;53.140;8.904;2023-09-19T05:42:16;4.93;;;1.93;;
11854;SDS011;5987;53.140;8.904;2023-09-19T05:45:20;7.57;;;2.33;;
11854;SDS011;5987;53.140;8.904;2023-09-19T05:48:25;8.07;;;1.80;;
11854;SDS011;5987;53.140;8.904;2023-09-19T05:51:29;9.27;;;1.83;;
11854;SDS011;5987;53.140;8.904;2023-09-19T05:54:35;7.60;;;2.00;;
11854;SDS011;5987;53.140;8.904;2023-09-19T05:57:39;9.27;;;1.80;;
11854;SDS011;5987;53.140;8.904;2023-09-19T06:00:44;6.47;;;2.23;;
11854;SDS011;5987;53.140;8.904;2023-09-19T06:03:50;6.00;;;2.03;;
11854;SDS011;5987;53.140;8.904;2023-09-19T06:06:54;3.70;;;1.73;;
11854;SDS011;5987;53.140;8.904;2023-09-19T06:09:59;6.43;;;1.73;;
11854;SDS011;5987;53.140;8.904;2023-09-19T06:13:03;8.63;;;2.27;;
11854;SDS011;5987;53.140;8.904;2023-09-19T06:16:07;9.37;;;2.73;;
11854;SDS011;5987;53.140;8.904;2023-09-19T06:19:11;6.57;;;1.70;;
11854;SDS011;5987;53.140;8.904;2023-09-19T06:22:15;3.40;;;1.20;;
11854;SDS011;5987;53.140;8.904;2023-09-19T06:25:22;5.67;;;1.80;;
11854;SDS011;5987;53.140;8.904;2023-09-19T06:28:26;2.30;;;1.83;;
11854;SDS011;5987;53.140;8.904;2023-09-19T06:31:30;7.20;;;2.80;;
11854;SDS011;5987;53.140;8.904;2023-09-19T06:34:33;5.43;;;1.80;;
11854;SDS011;5987;53.140;8.904;2023-09-19T06:37:38;10.83;;;2.20;;
11854;SDS011;5987;53.140;8.904;2023-09-19T06:40:44;14.80;;;2.47;;
11854;SDS011;5987;53.140;8.904;2023-09-19T06:43:48;4.77;;;1.70;;
11854;SDS011;5987;53.140;8.904;2023-09-19T06:46:54;6.87;;;1.70;;
11854;SDS011;5987;53.140;8.904;2023-09-19T06:49:58;3.37;;;1.70;;
11854;SDS011;5987;53.140;8.904;2023-09-19T06:53:03;4.50;;;2.30;;
11854;SDS011;5987;53.140;8.904;2023-09-19T06:56:08;6.90;;;1.93;;
11854;SDS011;5987;53.140;8.904;2023-09-19T06:59:12;5.23;;;2.00;;
11854;SDS011;5987;53.140;8.904;2023-09-19T07:02:17;8.43;;;1.50;;
11854;SDS011;5987;53.140;8.904;2023-09-19T07:05:24;7.20;;;1.90;;
11854;SDS011;5987;53.140;8.904;2023-09-19T07:08:29;7.93;;;2.30;;
11854;SDS011;5987;53.140;8.904;2023-09-19T07:11:34;7.03;;;2.10;;
11854;SDS011;5987;53.140;8.904;2023-09-19T07:14:38;2.70;;;1.47;;
11854;SDS011;5987;53.140;8.904;2023-09-19T07:17:42;7.27;;;2.40;;
11854;SDS011;5987;53.140;8.904;2023-09-19T07:20:47;7.03;;;1.70;;
11854;SDS011;5987;53.140;8.904;2023-09-19T07:23:51;9.63;;;2.00;;
11854;SDS011;5987;53.140;8.904;2023-09-19T07:26:57;8.07;;;1.77;;
11854;SDS011;5987;53.140;8.904;2023-09-19T07:30:00;4.03;;;1.63;;
11854;SDS011;5987;53.140;8.904;2023-09-19T07:33:04;5.23;;;1.50;;
11854;SDS011;5987;53.140;8.904;2023-09-19T07:36:11;5.97;;;1.43;;
11854;SDS011;5987;53.140;8.904;2023-09-19T07:39:15;4.73;;;1.67;;
11854;SDS011;5987;53.140;8.904;2023-09-19T07:42:25;3.80;;;1.20;;
11854;SDS011;5987;53.140;8.904;2023-09-19T07:45:29;4.80;;;1.50;;
11854;SDS011;5987;53.140;8.904;2023-09-19T07:48:33;6.80;;;1.30;;
11854;SDS011;5987;53.140;8.904;2023-09-19T07:51:37;7.37;;;1.93;;
11854;SDS011;5987;53.140;8.904;2023-09-19T07:54:42;3.70;;;1.23;;
11854;SDS011;5987;53.140;8.904;2023-09-19T07:57:48;5.77;;;1.60;;
11854;SDS011;5987;53.140;8.904;2023-09-19T08:00:52;7.17;;;1.53;;
11854;SDS011;5987;53.140;8.904;2023-09-19T08:03:56;4.57;;;1.33;;
11854;SDS011;5987;53.140;8.904;2023-09-19T08:07:00;7.07;;;1.80;;
11854;SDS011;5987;53.140;8.904;2023-09-19T08:10:06;3.60;;;1.43;;
11854;SDS011;5987;53.140;8.904;2023-09-19T08:13:16;6.27;;;1.60;;
11854;SDS011;5987;53.140;8.904;2023-09-19T08:16:20;4.83;;;1.33;;
11854;SDS011;5987;53.140;8.904;2023-09-19T08:19:26;4.57;;;1.40;;
11854;SDS011;5987;53.140;8.904;2023-09-19T08:22:32;5.63;;;1.27;;
11854;SDS011;5987;53.140;8.904;2023-09-19T08:25:36;6.37;;;1.13;;
11854;SDS011;5987;53.140;8.904;2023-09-19T08:28:42;4.17;;;1.00;;
11854;SDS011;5987;53.140;8.904;2023-09-19T08:31:46;3.53;;;0.97;;
11854;SDS011;5987;53.140;8.904;2023-09-19T08:34:52;5.40;;;1.60;;
11854;SDS011;5987;53.140;8.904;2023-09-19T08:37:56;6.03;;;1.33;;
11854;SDS011;5987;53.140;8.904;2023-09-19T08:41:05;2.23;;;1.00;;
11854;SDS011;5987;53.140;8.904;2023-09-19T08:44:11;6.53;;;1.73;;
11854;SDS011;5987;53.140;8.904;2023-09-19T08:47:16;7.30;;;1.70;;
11854;SDS011;5987;53.140;8.904;2023-09-19T08:50:36;5.50;;;1.30;;
11854;SDS011;5987;53.140;8.904;2023-09-19T08:53:50;9.33;;;1.77;;
11854;SDS011;5987;53.140;8.904;2023-09-19T08:57:03;2.83;;;1.10;;
11854;SDS011;5987;53.140;8.904;2023-09-19T09:00:14;3.73;;;1.23;;
11854;SDS011;5987;53.140;8.904;2023-09-19T09:03:21;6.43;;;1.67;;
11854;SDS011;5987;53.140;8.904;2023-09-19T09:06:28;6.33;;;1.23;;
11854;SDS011;5987;53.140;8.904;2023-09-19T09:09:34;5.70;;;1.20;;
11854;SDS011;5987;53.140;8.904;2023-09-19T09:12:38;3.80;;;1.20;;
11854;SDS011;5987;53.140;8.904;2023-09-19T09:15:44;5.43;;;1.63;;
11854;SDS011;5987;53.140;8.904;2023-09-19T09:18:48;5.93;;;1.57;;
11854;SDS011;5987;53.140;8.904;2023-09-19T09:21:57;5.93;;;1.63;;
11854;SDS011;5987;53.140;8.904;2023-09-19T09:25:10;6.10;;;1.50;;
11854;SDS011;5987;53.140;8.904;2023-09-19T09:28:18;4.87;;;1.30;;
11854;SDS011;5987;53.140;8.904;2023-09-19T09:31:25;4.53;;;1.57;;
11854;SDS011;5987;53.140;8.904;2023-09-19T09:34:32;5.70;;;1.40;;
11854;SDS011;5987;53.140;8.904;2023-09-19T09:37:36;3.03;;;1.30;;
11854;SDS011;5987;53.140;8.904;2023-09-19T09:40:46;6.03;;;0.90;;
11854;SDS011;5987;53.140;8.904;2023-09-19T09:44:04;7.40;;;1.93;;
11854;SDS011;5987;53.140;8.904;2023-09-19T09:47:19;3.67;;;1.10;;
11854;SDS011;5987;53.140;8.904;2023-09-19T09:50:56;7.23;;;1.40;;
11854;SDS011;5987;53.140;8.904;2023-09-19T09:54:11;3.53;;;0.90;;
11854;SDS011;5987;53.140;8.904;2023-09-19T09:57:16;3.83;;;1.23;;
11854;SDS011;5987;53.140;8.904;2023-09-19T10:00:24;4.23;;;1.30;;
11854;SDS011;5987;53.140;8.904;2023-09-19T10:03:36;3.83;;;1.10;;
11854;SDS011;5987;53.140;8.904;2023-09-19T10:06:43;4.93;;;1.17;;
11854;SDS011;5987;53.140;8.904;2023-09-19T10:09:50;6.10;;;1.13;;
11854;SDS011;5987;53.140;8.904;2023-09-19T10:12:55;6.63;;;1.70;;
11854;SDS011;5987;53.140;8.904;2023-09-19T10:16:05;6.93;;;1.50;;
11854;SDS011;5987;53.140;8.904;2023-09-19T10:19:16;2.43;;;1.07;;
11854;SDS011;5987;53.140;8.904;2023-09-19T10:22:26;3.80;;;1.63;;
11854;SDS011;5987;53.140;8.904;2023-09-19T10:25:34;4.17;;;1.10;;
11854;SDS011;5987;53.140;8.904;2023-09-19T10:28:41;6.83;;;1.43;;
11854;SDS011;5987;53.140;8.904;2023-09-19T10:31:47;4.50;;;1.27;;
11854;SDS011;5987;53.140;8.904;2023-09-19T10:34:53;6.20;;;1.30;;
11854;SDS011;5987;53.140;8.904;2023-09-19T10:38:00;5.70;;;1.50;;
11854;SDS011;5987;53.140;8.904;2023-09-19T10:41:04;3.93;;;1.10;;
11854;SDS011;5987;53.140;8.904;2023-09-19T10:44:12;10.73;;;1.70;;
11854;SDS011;5987;53.140;8.904;2023-09-19T10:47:20;4.10;;;1.40;;
11854;SDS011;5987;53.140;8.904;2023-09-19T10:50:27;8.27;;;1.97;;
11854;SDS011;5987;53.140;8.904;2023-09-19T10:53:41;2.43;;;1.27;;
11854;SDS011;5987;53.140;8.904;2023-09-19T10:56:50;6.83;;;1.67;;
11854;SDS011;5987;53.140;8.904;2023-09-19T11:00:02;5.73;;;1.83;;
11854;SDS011;5987;53.140;8.904;2023-09-19T11:03:23;4.47;;;1.13;;
11854;SDS011;5987;53.140;8.904;2023-09-19T11:06:33;7.93;;;2.00;;
11854;SDS011;5987;53.140;8.904;2023-09-19T11:09:46;5.33;;;1.67;;
11854;SDS011;5987;53.140;8.904;2023-09-19T11:12:54;5.77;;;2.17;;
11854;SDS011;5987;53.140;8.904;2023-09-19T11:16:03;5.33;;;1.80;;
11854;SDS011;5987;53.140;8.904;2023-09-19T11:19:07;5.70;;;1.93;;
11854;SDS011;5987;53.140;8.904;2023-09-19T11:22:14;11.93;;;2.30;;
11854;SDS011;5987;53.140;8.904;2023-09-19T11:28:49;4.83;;;1.63;;
11854;SDS011;5987;53.140;8.904;2023-09-19T11:36:28;5.93;;;1.27;;
11854;SDS011;5987;53.140;8.904;2023-09-19T11:39:42;5.50;;;1.83;;
11854;SDS011;5987;53.140;8.904;2023-09-19T11:43:30;4.07;;;1.20;;
11854;SDS011;5987;53.140;8.904;2023-09-19T11:46:51;4.23;;;1.53;;
11854;SDS011;5987;53.140;8.904;2023-09-19T11:49:56;4.80;;;1.17;;
11854;SDS011;5987;53.140;8.904;2023-09-19T11:53:00;7.60;;;1.63;;
11854;SDS011;5987;53.140;8.904;2023-09-19T11:56:09;5.57;;;1.50;;
11854;SDS011;5987;53.140;8.904;2023-09-19T11:59:13;4.87;;;1.40;;
11854;SDS011;5987;53.140;8.904;2023-09-19T12:02:28;5.67;;;1.63;;
11854;SDS011;5987;53.140;8.904;2023-09-19T12:05:44;3.93;;;1.37;;
11854;SDS011;5987;53.140;8.904;2023-09-19T12:08:48;7.57;;;1.63;;
11854;SDS011;5987;53.140;8.904;2023-09-19T12:11:56;2.80;;;1.30;;
11854;SDS011;5987;53.140;8.904;2023-09-19T12:15:01;5.33;;;1.13;;
11854;SDS011;5987;53.140;8.904;2023-09-19T12:18:05;8.60;;;1.57;;
11854;SDS011;5987;53.140;8.904;2023-09-19T12:21:22;6.00;;;1.63;;
11854;SDS011;5987;53.140;8.904;2023-09-19T12:24:33;8.13;;;1.70;;
11854;SDS011;5987;53.140;8.904;2023-09-19T12:27:44;4.27;;;1.70;;
11854;SDS011;5987;53.140;8.904;2023-09-19T12:30:51;4.07;;;1.40;;
11854;SDS011;5987;53.140;8.904;2023-09-19T12:33:57;9.43;;;2.53;;
11854;SDS011;5987;53.140;8.904;2023-09-19T12:37:03;3.73;;;1.53;;
11854;SDS011;5987;53.140;8.904;2023-09-19T12:40:17;3.53;;;1.37;;
11854;SDS011;5987;53.140;8.904;2023-09-19T12:43:29;8.00;;;1.93;;
11854;SDS011;5987;53.140;8.904;2023-09-19T12:46:36;6.57;;;1.60;;
11854;SDS011;5987;53.140;8.904;2023-09-19T12:53:24;3.67;;;1.27;;
11854;SDS011;5987;53.140;8.904;2023-09-19T12:56:38;3.70;;;1.50;;
11854;SDS011;5987;53.140;8.904;2023-09-19T12:59:47;3.83;;;1.23;;
11854;SDS011;5987;53.140;8.904;2023-09-19T13:03:11;6.00;;;1.80;;
11854;SDS011;5987;53.140;8.904;2023-09-19T13:06:35;4.53;;;1.90;;
11854;SDS011;5987;53.140;8.904;2023-09-19T13:09:40;4.40;;;1.30;;
11854;SDS011;5987;53.140;8.904;2023-09-19T13:13:22;3.30;;;1.00;;
11854;SDS011;5987;53.140;8.904;2023-09-19T13:16:31;5.67;;;2.00;;
11854;SDS011;5987;53.140;8.904;2023-09-19T13:19:36;7.50;;;1.67;;
11854;SDS011;5987;53.140;8.904;2023-09-19T13:22:42;3.47;;;1.30;;
11854;SDS011;5987;53.140;8.904;2023-09-19T13:25:51;4.90;;;1.40;;
11854;SDS011;5987;53.140;8.904;2023-09-19T13:28:55;3.33;;;1.30;;
11854;SDS011;5987;53.140;8.904;2023-09-19T13:32:01;4.90;;;1.80;;
11854;SDS011;5987;53.140;8.904;2023-09-19T13:35:06;6.43;;;1.40;;
11854;SDS011;5987;53.140;8.904;2023-09-19T13:38:11;1.97;;;1.20;;
11854;SDS011;5987;53.140;8.904;2023-09-19T13:41:15;2.90;;;1.33;;
11854;SDS011;5987;53.140;8.904;2023-09-19T13:44:19;5.20;;;1.80;;
11854;SDS011;5987;53.140;8.904;2023-09-19T13:47:24;4.97;;;1.30;;
11854;SDS011;5987;53.140;8.904;2023-09-19T13:50:28;7.00;;;1.73;;
11854;SDS011;5987;53.140;8.904;2023-09-19T13:53:33;4.77;;;1.30;;
11854;SDS011;5987;53.140;8.904;2023-09-19T13:56:36;2.83;;;1.53;;
11854;SDS011;5987;53.140;8.904;2023-09-19T13:59:40;4.00;;;1.50;;
11854;SDS011;5987;53.140;8.904;2023-09-19T14:02:46;4.13;;;1.53;;
11854;SDS011;5987;53.140;8.904;2023-09-19T14:05:51;3.93;;;1.20;;
11854;SDS011;5987;53.140;8.904;2023-09-19T14:08:54;5.97;;;1.57;;
11854;SDS011;5987;53.140;8.904;2023-09-19T14:11:58;2.80;;;1.10;;
11854;SDS011;5987;53.140;8.904;2023-09-19T14:15:02;7.43;;;1.30;;
11854;SDS011;5987;53.140;8.904;2023-09-19T14:18:08;5.27;;;1.27;;
11854;SDS011;5987;53.140;8.904;2023-09-19T14:21:12;6.40;;;1.33;;
11854;SDS011;5987;53.140;8.904;2023-09-19T14:24:16;5.33;;;1.57;;
11854;SDS011;5987;53.140;8.904;2023-09-19T14:27:20;2.03;;;1.07;;
11854;SDS011;5987;53.140;8.904;2023-09-19T14:30:24;7.47;;;1.60;;
11854;SDS011;5987;53.140;8.904;2023-09-19T14:33:30;6.07;;;2.07;;
11854;SDS011;5987;53.140;8.904;2023-09-19T14:36:34;6.43;;;1.53;;
11854;SDS011;5987;53.140;8.904;2023-09-19T14:39:43;4.73;;;1.43;;
11854;SDS011;5987;53.140;8.904;2023-09-19T14:42:47;7.43;;;2.00;;
11854;SDS011;5987;53.140;8.904;2023-09-19T14:45:53;6.50;;;1.63;;
11854;SDS011;5987;53.140;8.904;2023-09-19T14:49:00;4.27;;;1.30;;
11854;SDS011;5987;53.140;8.904;2023-09-19T14:52:07;4.63;;;1.47;;
11854;SDS011;5987;53.140;8.904;2023-09-19T14:55:14;3.00;;;0.90;;
11854;SDS011;5987;53.140;8.904;2023-09-19T14:58:17;2.87;;;1.40;;
11854;SDS011;5987;53.140;8.904;2023-09-19T15:01:22;3.47;;;1.30;;
11854;SDS011;5987;53.140;8.904;2023-09-19T15:04:28;2.40;;;0.80;;
11854;SDS011;5987;53.140;8.904;2023-09-19T15:07:32;6.63;;;1.70;;
11854;SDS011;5987;53.140;8.904;2023-09-19T15:10:38;4.30;;;1.33;;
11854;SDS011;5987;53.140;8.904;2023-09-19T15:13:41;3.43;;;1.30;;
11854;SDS011;5987;53.140;8.904;2023-09-19T15:16:46;5.80;;;1.63;;
11854;SDS011;5987;53.140;8.904;2023-09-19T15:19:52;5.23;;;1.00;;
11854;SDS011;5987;53.140;8.904;2023-09-19T15:22:57;4.30;;;1.00;;
11854;SDS011;5987;53.140;8.904;2023-09-19T15:26:02;8.10;;;1.70;;
11854;SDS011;5987;53.140;8.904;2023-09-19T15:29:05;3.77;;;1.33;;
11854;SDS011;5987;53.140;8.904;2023-09-19T15:32:10;2.17;;;0.80;;
11854;SDS011;5987;53.140;8.904;2023-09-19T15:35:16;4.90;;;1.53;;
11854;SDS011;5987;53.140;8.904;2023-09-19T15:38:19;7.03;;;1.43;;
11854;SDS011;5987;53.140;8.904;2023-09-19T15:41:23;4.13;;;1.40;;
11854;SDS011;5987;53.140;8.904;2023-09-19T15:44:28;6.73;;;1.33;;
11854;SDS011;5987;53.140;8.904;2023-09-19T15:47:32;2.67;;;1.00;;
11854;SDS011;5987;53.140;8.904;2023-09-19T15:50:37;4.00;;;1.20;;
11854;SDS011;5987;53.140;8.904;2023-09-19T15:53:44;5.60;;;1.40;;
11854;SDS011;5987;53.140;8.904;2023-09-19T15:56:50;3.70;;;1.33;;
11854;SDS011;5987;53.140;8.904;2023-09-19T15:59:53;2.03;;;1.00;;
11854;SDS011;5987;53.140;8.904;2023-09-19T16:03:00;2.93;;;1.40;;
11854;SDS011;5987;53.140;8.904;2023-09-19T16:06:08;2.17;;;1.20;;
11854;SDS011;5987;53.140;8.904;2023-09-19T16:09:14;5.40;;;1.73;;
11854;SDS011;5987;53.140;8.904;2023-09-19T16:12:17;2.50;;;1.37;;
11854;SDS011;5987;53.140;8.904;2023-09-19T16:15:21;4.60;;;1.43;;
11854;SDS011;5987;53.140;8.904;2023-09-19T16:18:26;2.07;;;0.90;;
11854;SDS011;5987;53.140;8.904;2023-09-19T16:21:36;4.23;;;1.50;;
11854;SDS011;5987;53.140;8.904;2023-09-19T16:24:45;2.90;;;1.30;;
11854;SDS011;5987;53.140;8.904;2023-09-19T16:27:51;2.53;;;1.27;;
11854;SDS011;5987;53.140;8.904;2023-09-19T16:30:57;6.93;;;1.33;;
11854;SDS011;5987;53.140;8.904;2023-09-19T16:34:03;3.47;;;1.13;;
11854;SDS011;5987;53.140;8.904;2023-09-19T16:37:08;3.87;;;1.20;;
11854;SDS011;5987;53.140;8.904;2023-09-19T16:40:12;3.40;;;1.00;;
11854;SDS011;5987;53.140;8.904;2023-09-19T16:43:16;2.30;;;1.33;;
11854;SDS011;5987;53.140;8.904;2023-09-19T16:46:19;3.60;;;1.13;;
11854;SDS011;5987;53.140;8.904;2023-09-19T16:49:23;4.30;;;1.13;;
11854;SDS011;5987;53.140;8.904;2023-09-19T16:52:28;4.43;;;1.00;;
11854;SDS011;5987;53.140;8.904;2023-09-19T16:55:33;2.40;;;1.20;;
11854;SDS011;5987;53.140;8.904;2023-09-19T16:58:37;2.97;;;1.30;;
11854;SDS011;5987;53.140;8.904;2023-09-19T17:01:44;3.87;;;1.20;;
11854;SDS011;5987;53.140;8.904;2023-09-19T17:04:48;1.40;;;0.83;;
11854;SDS011;5987;53.140;8.904;2023-09-19T17:07:54;2.97;;;0.80;;
11854;SDS011;5987;53.140;8.904;2023-09-19T17:11:02;3.57;;;0.80;;
11854;SDS011;5987;53.140;8.904;2023-09-19T17:14:10;5.23;;;0.93;;
11854;SDS011;5987;53.140;8.904;2023-09-19T17:17:16;1.50;;;0.77;;
11854;SDS011;5987;53.140;8.904;2023-09-19T17:20:20;7.27;;;1.10;;
11854;SDS011;5987;53.140;8.904;2023-09-19T17:23:26;2.80;;;0.87;;
11854;SDS011;5987;53.140;8.904;2023-09-19T17:26:30;6.93;;;1.00;;
11854;SDS011;5987;53.140;8.904;2023-09-19T17:29:35;3.83;;;1.40;;
11854;SDS011;5987;53.140;8.904;2023-09-19T17:32:39;3.77;;;1.03;;
11854;SDS011;5987;53.140;8.904;2023-09-19T17:35:43;1.17;;;0.90;;
11854;SDS011;5987;53.140;8.904;2023-09-19T17:38:49;4.17;;;1.17;;
11854;SDS011;5987;53.140;8.904;2023-09-19T17:41:55;2.60;;;0.90;;
11854;SDS011;5987;53.140;8.904;2023-09-19T17:44:59;0.90;;;0.60;;
11854;SDS011;5987;53.140;8.904;2023-09-19T17:48:03;2.10;;;0.87;;
11854;SDS011;5987;53.140;8.904;2023-09-19T17:51:08;2.30;;;0.93;;
11854;SDS011;5987;53.140;8.904;2023-09-19T17:54:14;2.20;;;1.10;;
11854;SDS011;5987;53.140;8.904;2023-09-19T17:57:18;1.70;;;0.73;;
11854;SDS011;5987;53.140;8.904;2023-09-19T18:00:21;4.33;;;1.10;;
11854;SDS011;5987;53.140;8.904;2023-09-19T18:03:25;2.17;;;0.90;;
11854;SDS011;5987;53.140;8.904;2023-09-19T18:06:30;2.70;;;1.00;;
11854;SDS011;5987;53.140;8.904;2023-09-19T18:09:35;3.03;;;0.80;;
11854;SDS011;5987;53.140;8.904;2023-09-19T18:12:39;1.83;;;0.83;;
11854;SDS011;5987;53.140;8.904;2023-09-19T18:15:44;1.70;;;0.90;;
11854;SDS011;5987;53.140;8.904;2023-09-19T18:18:48;3.73;;;1.00;;
11854;SDS011;5987;53.140;8.904;2023-09-19T18:21:54;3.50;;;1.00;;
11854;SDS011;5987;53.140;8.904;2023-09-19T18:25:02;1.43;;;0.70;;
11854;SDS011;5987;53.140;8.904;2023-09-19T18:28:07;1.53;;;0.63;;
11854;SDS011;5987;53.140;8.904;2023-09-19T18:31:11;2.83;;;0.93;;
11854;SDS011;5987;53.140;8.904;2023-09-19T18:34:15;3.57;;;0.87;;
11854;SDS011;5987;53.140;8.904;2023-09-19T18:37:19;1.40;;;0.80;;
11854;SDS011;5987;53.140;8.904;2023-09-19T18:40:26;2.00;;;0.83;;
11854;SDS011;5987;53.140;8.904;2023-09-19T18:43:30;1.47;;;0.57;;
11854;SDS011;5987;53.140;8.904;2023-09-19T18:46:35;2.67;;;1.07;;
11854;SDS011;5987;53.140;8.904;2023-09-19T18:49:42;2.17;;;1.00;;
11854;SDS011;5987;53.140;8.904;2023-09-19T18:52:46;3.67;;;1.27;;
11854;SDS011;5987;53.140;8.904;2023-09-19T18:55:54;4.33;;;0.60;;
11854;SDS011;5987;53.140;8.904;2023-09-19T18:59:07;5.33;;;1.10;;
11854;SDS011;5987;53.140;8.904;2023-09-19T19:02:12;2.63;;;0.97;;
11854;SDS011;5987;53.140;8.904;2023-09-19T19:05:16;3.03;;;0.80;;
11854;SDS011;5987;53.140;8.904;2023-09-19T19:08:20;3.47;;;1.20;;
11854;SDS011;5987;53.140;8.904;2023-09-19T19:11:25;3.63;;;1.20;;